Time;durP1;ratioP1;P1;durP2;ratioP2;P2;SDS_P1;SDS_P2;PMS_P1;PMS_P2;Temp;Humidity;BMP_temperature;BMP_pressure;BME280_temperature;BME280_humidity;BME280_pressure;Samples;Min_cycle;Max_cycle;Signal;HPM_P1;HPM_P2
2021/06/23 00:00:18;;;;;;;17.10;15.30;;;;;;;;;;5062376;28;20404;-76
2021/06/23 00:02:44;;;;;;;19.58;17.17;;;;;;;;;;5061455;28;20206;-76
2021/06/23 00:05:11;;;;;;;24.40;18.67;;;;;;;;;;5062696;28;20419;-76
2021/06/23 00:07:37;;;;;;;23.17;17.90;;;;;;;;;;5078963;28;20186;-76
2021/06/23 00:10:03;;;;;;;23.93;18.53;;;;;;;;;;5061213;28;20188;-76
2021/06/23 00:12:30;;;;;;;21.05;16.92;;;;;;;;;;5062591;28;20929;-76
2021/06/23 00:14:56;;;;;;;20.67;16.15;;;;;;;;;;5063914;28;20219;-76
2021/06/23 00:17:22;;;;;;;21.30;17.43;;;;;;;;;;5062498;28;20219;-76
2021/06/23 00:19:48;;;;;;;21.17;18.20;;;;;;;;;;5064684;28;20883;-75
2021/06/23 00:22:14;;;;;;;21.13;16.35;;;;;;;;;;5061288;28;20893;-76
2021/06/23 00:24:41;;;;;;;22.70;16.45;;;;;;;;;;5062018;28;20179;-76
2021/06/23 00:27:07;;;;;;;18.55;15.55;;;;;;;;;;5068220;28;20188;-76
2021/06/23 00:29:33;;;;;;;19.48;17.10;;;;;;;;;;5061814;28;20772;-75
2021/06/23 00:31:59;;;;;;;21.77;16.65;;;;;;;;;;5063197;28;20193;-75
2021/06/23 00:34:27;;;;;;;20.33;16.02;;;;;;;;;;5062958;28;20176;-75
2021/06/23 00:36:53;;;;;;;20.70;16.60;;;;;;;;;;5059855;28;20300;-76
2021/06/23 00:39:19;;;;;;;20.67;15.43;;;;;;;;;;5060471;28;20177;-75
2021/06/23 00:41:45;;;;;;;18.90;15.20;;;;;;;;;;5061455;28;20520;-76
2021/06/23 00:44:13;;;;;;;22.08;16.92;;;;;;;;;;5063571;28;20196;-75
2021/06/23 00:46:39;;;;;;;21.90;15.85;;;;;;;;;;5077992;28;20605;-75
2021/06/23 00:49:05;;;;;;;22.02;16.20;;;;;;;;;;5060603;28;20223;-75
2021/06/23 00:51:31;;;;;;;18.80;15.85;;;;;;;;;;5076264;28;20182;-75
2021/06/23 00:53:57;;;;;;;22.45;16.10;;;;;;;;;;5061982;28;20201;-75
2021/06/23 00:56:30;;;;;;;25.30;16.83;;;;;;;;;;5071488;28;20223;-75
2021/06/23 00:58:56;;;;;;;18.65;16.20;;;;;;;;;;5076382;28;20234;-75
2021/06/23 01:01:23;;;;;;;18.73;15.85;;;;;;;;;;5061012;28;20289;-75
2021/06/23 01:03:49;;;;;;;21.05;15.85;;;;;;;;;;5060190;28;20178;-75
2021/06/23 01:06:15;;;;;;;18.77;14.02;;;;;;;;;;5061124;28;20196;-75
2021/06/23 01:08:41;;;;;;;23.55;14.77;;;;;;;;;;5062329;28;20270;-75
2021/06/23 01:11:08;;;;;;;21.58;16.77;;;;;;;;;;5063114;28;20207;-76
2021/06/23 01:13:52;;;;;;;16.63;13.75;;;;;;;;;;5063300;28;20178;-75
2021/06/23 01:16:20;;;;;;;19.08;15.25;;;;;;;;;;5060392;28;20737;-75
2021/06/23 01:18:46;;;;;;;18.98;15.95;;;;;;;;;;5059187;28;20187;-75
2021/06/23 01:21:12;;;;;;;20.27;15.77;;;;;;;;;;5060031;28;20203;-75
2021/06/23 01:23:38;;;;;;;17.75;15.73;;;;;;;;;;5061340;28;20182;-75
2021/06/23 01:26:04;;;;;;;23.25;15.50;;;;;;;;;;5062847;28;20183;-75
2021/06/23 01:28:30;;;;;;;20.58;17.33;;;;;;;;;;5062508;28;20207;-75
2021/06/23 01:30:57;;;;;;;19.98;16.27;;;;;;;;;;5059251;28;20195;-76
2021/06/23 01:33:24;;;;;;;19.98;15.82;;;;;;;;;;5059327;28;20184;-75
2021/06/23 01:35:51;;;;;;;17.70;14.60;;;;;;;;;;5059684;28;20197;-74
2021/06/23 01:38:17;;;;;;;17.50;15.50;;;;;;;;;;5060049;28;20214;-75
2021/06/23 01:40:44;;;;;;;20.93;15.27;;;;;;;;;;5079062;28;20632;-75
2021/06/23 01:43:10;;;;;;;23.65;15.77;;;;;;;;;;5060355;28;20430;-74
2021/06/23 01:45:37;;;;;;;21.48;16.10;;;;;;;;;;5060807;28;20686;-75
2021/06/23 01:48:03;;;;;;;19.33;15.68;;;;;;;;;;5059891;28;20251;-74
2021/06/23 01:50:29;;;;;;;20.10;15.50;;;;;;;;;;5060119;28;20200;-74
2021/06/23 01:52:55;;;;;;;21.37;16.67;;;;;;;;;;5062509;28;20194;-75
2021/06/23 01:55:27;;;;;;;18.80;15.00;;;;;;;;;;5063756;28;20523;-74
2021/06/23 01:57:58;;;;;;;20.40;15.90;;;;;;;;;;5058346;28;20490;-75
2021/06/23 02:00:27;;;;;;;16.90;15.02;;;;;;;;;;5060124;28;20312;-75
2021/06/23 02:02:57;;;;;;;20.95;14.85;;;;;;;;;;5059841;28;20677;-75
2021/06/23 02:05:34;;;;;;;21.33;16.25;;;;;;;;;;5056036;28;20189;-75
2021/06/23 02:08:20;;;;;;;22.08;14.45;;;;;;;;;;5075237;28;20269;-75
2021/06/23 02:10:58;;;;;;;26.80;15.50;;;;;;;;;;5062951;28;20201;-75
2021/06/23 02:13:30;;;;;;;25.10;16.85;;;;;;;;;;5076452;28;20733;-75
2021/06/23 02:15:56;;;;;;;20.70;15.10;;;;;;;;;;5060105;28;20229;-75
2021/06/23 02:18:22;;;;;;;20.75;17.13;;;;;;;;;;5059137;28;20186;-75
2021/06/23 02:20:51;;;;;;;20.70;14.27;;;;;;;;;;5059522;28;20237;-74
2021/06/23 02:23:18;;;;;;;19.90;14.07;;;;;;;;;;5059450;28;20343;-74
2021/06/23 02:25:44;;;;;;;18.25;15.13;;;;;;;;;;5077465;28;20183;-74
2021/06/23 02:28:10;;;;;;;23.73;15.30;;;;;;;;;;5058537;28;20511;-75
2021/06/23 02:30:37;;;;;;;27.33;15.27;;;;;;;;;;5058626;28;20183;-79
2021/06/23 02:33:03;;;;;;;18.75;14.98;;;;;;;;;;5059854;28;20192;-75
2021/06/23 02:35:29;;;;;;;18.23;13.70;;;;;;;;;;5058898;28;20188;-75
2021/06/23 02:37:58;;;;;;;20.60;13.07;;;;;;;;;;5060971;28;20583;-75
2021/06/23 02:40:24;;;;;;;18.55;13.63;;;;;;;;;;5059705;28;20166;-75
2021/06/23 02:42:50;;;;;;;20.73;15.02;;;;;;;;;;5059526;28;20235;-75
2021/06/23 02:45:16;;;;;;;19.35;15.45;;;;;;;;;;5058092;28;20176;-74
2021/06/23 02:47:43;;;;;;;15.70;14.07;;;;;;;;;;5058115;28;20675;-75
2021/06/23 02:50:09;;;;;;;17.55;13.45;;;;;;;;;;5060537;28;20179;-75
2021/06/23 02:52:36;;;;;;;17.90;14.07;;;;;;;;;;5060753;28;20562;-74
2021/06/23 02:55:06;;;;;;;19.08;14.93;;;;;;;;;;5058912;28;20439;-74
2021/06/23 02:57:33;;;;;;;62.90;15.70;;;;;;;;;;5058619;28;20222;-74
2021/06/23 02:59:59;;;;;;;15.55;13.20;;;;;;;;;;5058919;28;20713;-74
2021/06/23 03:02:25;;;;;;;20.35;14.75;;;;;;;;;;5058723;28;20258;-75
2021/06/23 03:04:51;;;;;;;16.48;13.65;;;;;;;;;;5063434;28;20186;-75
2021/06/23 03:07:17;;;;;;;16.80;13.13;;;;;;;;;;5060014;28;20193;-75
2021/06/23 03:09:44;;;;;;;22.33;13.77;;;;;;;;;;5059256;28;20436;-74
2021/06/23 03:12:11;;;;;;;19.88;14.05;;;;;;;;;;5074551;28;20181;-74
2021/06/23 03:14:37;;;;;;;19.77;13.55;;;;;;;;;;5063495;28;20681;-75
2021/06/23 03:17:03;;;;;;;16.20;13.45;;;;;;;;;;5063051;28;20219;-75
2021/06/23 03:19:29;;;;;;;18.30;13.98;;;;;;;;;;5065806;28;20182;-74
2021/06/23 03:21:55;;;;;;;19.53;15.07;;;;;;;;;;5063103;28;20301;-74
2021/06/23 03:24:22;;;;;;;16.52;13.63;;;;;;;;;;5061564;28;20437;-75
2021/06/23 03:26:48;;;;;;;23.52;15.15;;;;;;;;;;5062971;28;20189;-74
2021/06/23 03:29:26;;;;;;;15.52;13.77;;;;;;;;;;5064776;28;20215;-74
2021/06/23 03:31:52;;;;;;;17.67;13.98;;;;;;;;;;5065308;28;20578;-74
2021/06/23 03:34:18;;;;;;;17.75;13.30;;;;;;;;;;5061387;28;20209;-74
2021/06/23 03:36:44;;;;;;;21.13;13.98;;;;;;;;;;5062554;28;20197;-74
2021/06/23 03:39:10;;;;;;;24.00;15.20;;;;;;;;;;5064323;28;20200;-74
2021/06/23 03:41:36;;;;;;;17.97;13.63;;;;;;;;;;5062786;28;20626;-75
2021/06/23 03:44:02;;;;;;;19.27;13.93;;;;;;;;;;5063261;28;20471;-74
2021/06/23 03:46:29;;;;;;;21.42;14.40;;;;;;;;;;5064924;28;20438;-75
2021/06/23 03:48:56;;;;;;;18.73;14.20;;;;;;;;;;5060593;28;20190;-75
2021/06/23 03:51:22;;;;;;;21.25;14.93;;;;;;;;;;5062765;28;20177;-74
2021/06/23 03:53:48;;;;;;;19.13;14.85;;;;;;;;;;5063959;28;20205;-75
2021/06/23 03:56:14;;;;;;;20.17;15.75;;;;;;;;;;5064031;28;20230;-75
2021/06/23 03:58:42;;;;;;;21.27;16.00;;;;;;;;;;5065732;28;20174;-76
2021/06/23 04:01:08;;;;;;;21.17;14.93;;;;;;;;;;5060571;28;20189;-74
2021/06/23 04:03:34;;;;;;;19.08;15.80;;;;;;;;;;5064109;28;20217;-74
2021/06/23 04:06:00;;;;;;;20.80;14.60;;;;;;;;;;5060295;28;20252;-74
2021/06/23 04:08:26;;;;;;;22.33;15.18;;;;;;;;;;5061692;28;20441;-75
2021/06/23 04:10:52;;;;;;;21.90;15.60;;;;;;;;;;5063872;28;20186;-74
2021/06/23 04:13:18;;;;;;;20.50;15.25;;;;;;;;;;5061481;28;20432;-75
2021/06/23 04:15:44;;;;;;;18.90;15.05;;;;;;;;;;5061419;28;20272;-74
2021/06/23 04:18:10;;;;;;;18.45;15.98;;;;;;;;;;5061621;28;20243;-74
2021/06/23 04:20:36;;;;;;;20.60;14.40;;;;;;;;;;5060619;28;20178;-73
2021/06/23 04:23:02;;;;;;;19.98;14.40;;;;;;;;;;5062555;28;20201;-74
2021/06/23 04:25:28;;;;;;;17.30;14.90;;;;;;;;;;5064891;28;20184;-74
2021/06/23 04:27:55;;;;;;;19.90;14.07;;;;;;;;;;5077466;28;20182;-74
2021/06/23 04:30:21;;;;;;;20.30;15.10;;;;;;;;;;5076673;28;20433;-75
2021/06/23 04:32:47;;;;;;;21.38;15.43;;;;;;;;;;5062292;28;20190;-74
2021/06/23 04:35:13;;;;;;;22.50;14.30;;;;;;;;;;5062389;28;20214;-75
2021/06/23 04:37:42;;;;;;;19.33;12.95;;;;;;;;;;5065779;28;20222;-74
2021/06/23 04:40:10;;;;;;;23.42;14.77;;;;;;;;;;5061511;28;20186;-74
2021/06/23 04:42:36;;;;;;;19.38;15.00;;;;;;;;;;5060900;28;20188;-75
2021/06/23 04:45:04;;;;;;;18.95;13.98;;;;;;;;;;5061540;28;20262;-74
2021/06/23 04:47:30;;;;;;;20.15;13.00;;;;;;;;;;5062442;28;20198;-74
2021/06/23 04:49:56;;;;;;;20.38;14.55;;;;;;;;;;5066909;28;20197;-75
2021/06/23 04:52:22;;;;;;;16.87;13.13;;;;;;;;;;5062217;28;20235;-75
2021/06/23 04:54:48;;;;;;;17.15;12.57;;;;;;;;;;5060350;28;20505;-74
2021/06/23 04:57:14;;;;;;;15.70;14.00;;;;;;;;;;5059421;28;20259;-74
2021/06/23 04:59:40;;;;;;;16.25;13.10;;;;;;;;;;5059570;28;20187;-75
2021/06/23 05:02:06;;;;;;;15.60;11.73;;;;;;;;;;5061924;28;20178;-75
2021/06/23 05:04:33;;;;;;;16.70;13.45;;;;;;;;;;5062795;28;20342;-74
2021/06/23 05:07:02;;;;;;;17.27;12.73;;;;;;;;;;5060409;28;20181;-74
2021/06/23 05:09:28;;;;;;;21.92;13.85;;;;;;;;;;5059670;28;20361;-74
2021/06/23 05:11:54;;;;;;;15.90;12.75;;;;;;;;;;5060683;28;20473;-75
2021/06/23 05:14:20;;;;;;;18.17;13.20;;;;;;;;;;5059792;28;20485;-75
2021/06/23 05:16:49;;;;;;;17.25;13.07;;;;;;;;;;5062828;28;20243;-74
2021/06/23 05:19:17;;;;;;;16.20;11.88;;;;;;;;;;5061171;28;20181;-74
2021/06/23 05:21:43;;;;;;;13.35;11.90;;;;;;;;;;5064038;28;20519;-74
2021/06/23 05:24:09;;;;;;;14.77;12.65;;;;;;;;;;5060793;28;20180;-74
2021/06/23 05:26:35;;;;;;;17.73;12.85;;;;;;;;;;5061759;28;20553;-74
2021/06/23 05:29:01;;;;;;;15.05;12.02;;;;;;;;;;5065290;28;20182;-76
2021/06/23 05:31:27;;;;;;;22.27;14.80;;;;;;;;;;5063166;28;20184;-74
2021/06/23 05:33:53;;;;;;;14.80;12.40;;;;;;;;;;5063197;28;20445;-75
2021/06/23 05:36:19;;;;;;;15.27;12.10;;;;;;;;;;5062836;28;20531;-74
2021/06/23 05:38:45;;;;;;;14.73;11.35;;;;;;;;;;5060481;28;20499;-74
2021/06/23 05:41:12;;;;;;;15.10;12.30;;;;;;;;;;5060590;28;20248;-74
2021/06/23 05:43:38;;;;;;;17.13;13.65;;;;;;;;;;5077636;28;20246;-75
2021/06/23 05:46:04;;;;;;;19.83;13.90;;;;;;;;;;5060558;28;20173;-75
2021/06/23 05:48:30;;;;;;;15.52;11.95;;;;;;;;;;5071085;28;20190;-74
2021/06/23 05:50:56;;;;;;;14.48;12.10;;;;;;;;;;5058489;28;20182;-74
2021/06/23 05:53:22;;;;;;;23.50;13.50;;;;;;;;;;5061613;28;20193;-74
2021/06/23 05:55:48;;;;;;;19.73;12.43;;;;;;;;;;5078396;28;20808;-74
2021/06/23 05:58:14;;;;;;;16.58;12.07;;;;;;;;;;5060593;28;20189;-74
2021/06/23 06:00:40;;;;;;;16.88;11.95;;;;;;;;;;5058378;28;20179;-74
2021/06/23 06:03:06;;;;;;;17.35;13.73;;;;;;;;;;5069925;28;20183;-75
2021/06/23 06:05:32;;;;;;;15.27;12.55;;;;;;;;;;5060677;28;20206;-74
2021/06/23 06:07:58;;;;;;;16.85;13.80;;;;;;;;;;5062989;28;20190;-74
2021/06/23 06:10:24;;;;;;;13.50;11.80;;;;;;;;;;5060454;28;20216;-74
2021/06/23 06:12:50;;;;;;;23.33;13.88;;;;;;;;;;5058268;28;20454;-75
2021/06/23 06:15:16;;;;;;;16.10;12.70;;;;;;;;;;5059920;28;20212;-75
2021/06/23 06:17:42;;;;;;;14.02;11.55;;;;;;;;;;5061637;28;20463;-74
2021/06/23 06:20:10;;;;;;;16.00;11.87;;;;;;;;;;5059197;28;20170;-74
2021/06/23 06:22:36;;;;;;;15.10;12.55;;;;;;;;;;5060847;28;20774;-74
2021/06/23 06:25:03;;;;;;;15.23;12.10;;;;;;;;;;5061682;28;20213;-74
2021/06/23 06:27:29;;;;;;;13.55;12.15;;;;;;;;;;5056978;28;20200;-74
2021/06/23 06:29:55;;;;;;;14.90;12.07;;;;;;;;;;5060358;28;20194;-75
2021/06/23 06:32:21;;;;;;;15.57;12.85;;;;;;;;;;5060419;28;20194;-74
2021/06/23 06:34:47;;;;;;;17.25;12.88;;;;;;;;;;5071071;28;20250;-74
2021/06/23 06:37:13;;;;;;;15.10;13.40;;;;;;;;;;5059342;28;20235;-74
2021/06/23 06:39:39;;;;;;;14.98;13.15;;;;;;;;;;5059491;28;20446;-74
2021/06/23 06:42:05;;;;;;;13.40;12.00;;;;;;;;;;5059557;28;20181;-75
2021/06/23 06:44:32;;;;;;;15.52;12.25;;;;;;;;;;5061276;28;20578;-74
2021/06/23 06:46:58;;;;;;;13.65;12.30;;;;;;;;;;5056727;28;20177;-74
2021/06/23 06:49:28;;;;;;;16.23;12.88;;;;;;;;;;5079110;28;20239;-75
2021/06/23 06:51:58;;;;;;;15.82;13.18;;;;;;;;;;5064101;28;20459;-74
2021/06/23 06:54:34;;;;;;;13.63;12.23;;;;;;;;;;5064204;28;20203;-74
2021/06/23 06:57:00;;;;;;;14.65;12.85;;;;;;;;;;5065020;28;20659;-76
2021/06/23 06:59:26;;;;;;;14.75;12.23;;;;;;;;;;5063728;28;20667;-75
2021/06/23 07:01:52;;;;;;;14.23;12.43;;;;;;;;;;5079612;28;20192;-74
2021/06/23 07:04:18;;;;;;;15.88;12.75;;;;;;;;;;5064054;28;20495;-75
2021/06/23 07:06:45;;;;;;;13.80;11.88;;;;;;;;;;5061002;28;20187;-74
2021/06/23 07:09:11;;;;;;;15.48;12.18;;;;;;;;;;5063925;28;20705;-74
2021/06/23 07:11:37;;;;;;;12.85;11.20;;;;;;;;;;5062958;28;20193;-74
2021/06/23 07:14:03;;;;;;;13.40;12.00;;;;;;;;;;5066240;28;20188;-75
2021/06/23 07:16:29;;;;;;;13.95;11.70;;;;;;;;;;5065133;28;20236;-75
2021/06/23 07:18:55;;;;;;;14.68;12.50;;;;;;;;;;5062830;28;20196;-75
2021/06/23 07:21:22;;;;;;;12.27;10.97;;;;;;;;;;5063730;28;20175;-74
2021/06/23 07:23:49;;;;;;;12.32;11.13;;;;;;;;;;5063015;28;20486;-74
2021/06/23 07:26:15;;;;;;;13.60;11.73;;;;;;;;;;5063917;28;20181;-74
2021/06/23 07:31:11;;;;;;;15.23;10.77;;;;;;;;;;5062816;28;20280;-73
2021/06/23 07:33:39;;;;;;;15.43;10.90;;;;;;;;;;5063381;28;20645;-74
2021/06/23 07:38:54;;;;;;;12.13;10.77;;;;;;;;;;5062760;28;20415;-73
2021/06/23 07:41:20;;;;;;;12.15;10.60;;;;;;;;;;5061111;28;20254;-76
2021/06/23 07:43:46;;;;;;;12.85;10.70;;;;;;;;;;5068317;28;20177;-75
2021/06/23 07:46:12;;;;;;;11.63;10.43;;;;;;;;;;5062313;28;20193;-74
2021/06/23 07:48:38;;;;;;;11.35;10.25;;;;;;;;;;5068108;28;20550;-77
2021/06/23 07:51:16;;;;;;;18.73;11.02;;;;;;;;;;5063449;28;20183;-75
2021/06/23 08:09:35;;;;;;;11.30;9.70;;;;;;;;;;5062522;28;20212;-75
2021/06/23 08:12:15;;;;;;;14.02;9.75;;;;;;;;;;5061175;28;20447;-73
2021/06/23 08:14:41;;;;;;;9.75;8.70;;;;;;;;;;5063862;28;20193;-74
2021/06/23 08:17:08;;;;;;;10.40;9.43;;;;;;;;;;5064006;28;20271;-75
2021/06/23 08:19:34;;;;;;;9.82;8.82;;;;;;;;;;5079174;28;20194;-74
2021/06/23 08:22:00;;;;;;;9.93;8.85;;;;;;;;;;5060177;28;20270;-74
2021/06/23 08:24:26;;;;;;;9.90;8.93;;;;;;;;;;5078012;28;20188;-74
2021/06/23 08:26:52;;;;;;;9.57;8.33;;;;;;;;;;5062071;28;20492;-74
2021/06/23 08:29:18;;;;;;;10.00;8.70;;;;;;;;;;5063815;28;20431;-74
2021/06/23 08:31:44;;;;;;;8.77;7.88;;;;;;;;;;5079657;28;20424;-73
2021/06/23 08:34:10;;;;;;;8.60;7.73;;;;;;;;;;5062157;28;20182;-73
2021/06/23 08:36:36;;;;;;;7.35;6.72;;;;;;;;;;5061446;28;20502;-73
2021/06/23 08:39:02;;;;;;;7.60;6.93;;;;;;;;;;5062398;28;20189;-73
2021/06/23 08:41:29;;;;;;;8.80;7.88;;;;;;;;;;5062278;28;20180;-73
2021/06/23 08:43:58;;;;;;;7.43;6.72;;;;;;;;;;5065626;28;20172;-74
2021/06/23 08:46:24;;;;;;;7.78;7.07;;;;;;;;;;5078550;28;20179;-73
2021/06/23 08:48:51;;;;;;;7.70;6.95;;;;;;;;;;5060043;28;20187;-73
2021/06/23 08:51:17;;;;;;;9.05;6.15;;;;;;;;;;5060195;28;20187;-73
2021/06/23 08:53:43;;;;;;;8.27;6.93;;;;;;;;;;5061594;28;20194;-73
2021/06/23 08:56:09;;;;;;;7.47;6.50;;;;;;;;;;5062592;28;20200;-73
2021/06/23 08:58:36;;;;;;;6.88;6.28;;;;;;;;;;5062932;28;20211;-73
2021/06/23 09:01:02;;;;;;;8.52;7.63;;;;;;;;;;5060622;28;20182;-73
2021/06/23 09:03:28;;;;;;;8.23;7.53;;;;;;;;;;5060977;28;20187;-73
2021/06/23 09:05:57;;;;;;;10.32;7.93;;;;;;;;;;5061020;28;20763;-74
2021/06/23 09:08:35;;;;;;;7.55;6.93;;;;;;;;;;5060329;28;20215;-74
2021/06/23 09:11:01;;;;;;;8.43;7.50;;;;;;;;;;5061610;28;20168;-73
2021/06/23 09:13:28;;;;;;;7.45;6.85;;;;;;;;;;5062220;28;20625;-74
2021/06/23 09:15:58;;;;;;;9.07;7.25;;;;;;;;;;5060960;28;20282;-74
2021/06/23 09:18:27;;;;;;;9.05;8.02;;;;;;;;;;5060492;28;20199;-73
2021/06/23 09:20:55;;;;;;;7.90;7.20;;;;;;;;;;5061603;28;20207;-74
2021/06/23 09:23:41;;;;;;;10.10;7.30;;;;;;;;;;5060712;28;20248;-73
2021/06/23 09:26:11;;;;;;;8.45;7.05;;;;;;;;;;5061331;28;20182;-73
2021/06/23 09:28:37;;;;;;;12.40;7.75;;;;;;;;;;5078265;28;20206;-74
2021/06/23 09:31:06;;;;;;;10.40;7.78;;;;;;;;;;5059411;28;20667;-73
2021/06/23 09:33:32;;;;;;;8.95;8.05;;;;;;;;;;5060358;28;20179;-75
2021/06/23 09:35:59;;;;;;;9.15;7.43;;;;;;;;;;5060603;28;20177;-74
2021/06/23 09:38:44;;;;;;;8.68;7.82;;;;;;;;;;5071446;28;20543;-74
2021/06/23 09:41:28;;;;;;;7.82;7.00;;;;;;;;;;5076531;28;20173;-73
2021/06/23 09:43:59;;;;;;;8.82;7.40;;;;;;;;;;5079398;28;20203;-73
2021/06/23 09:46:35;;;;;;;9.52;8.50;;;;;;;;;;5062120;28;20595;-74
2021/06/23 09:49:10;;;;;;;8.40;7.20;;;;;;;;;;5058710;28;20254;-74
2021/06/23 09:51:41;;;;;;;11.50;7.55;;;;;;;;;;5076428;28;20501;-73
2021/06/23 09:54:07;;;;;;;6.70;5.93;;;;;;;;;;5060340;28;20185;-73
2021/06/23 09:56:39;;;;;;;7.10;6.40;;;;;;;;;;5063112;28;20202;-73
2021/06/23 09:59:07;;;;;;;8.23;7.40;;;;;;;;;;5061494;28;20177;-74
2021/06/23 10:01:39;;;;;;;7.88;7.15;;;;;;;;;;5061939;28;20168;-74
2021/06/23 10:04:08;;;;;;;8.00;6.13;;;;;;;;;;5060047;28;20180;-73
2021/06/23 10:06:54;;;;;;;9.02;7.82;;;;;;;;;;5058738;28;20194;-74
2021/06/23 10:09:24;;;;;;;8.85;7.97;;;;;;;;;;5054269;28;20219;-74
2021/06/23 10:11:52;;;;;;;11.07;7.80;;;;;;;;;;5060206;28;20772;-74
2021/06/23 10:14:18;;;;;;;7.32;6.63;;;;;;;;;;5060152;28;20192;-74
2021/06/23 10:16:44;;;;;;;8.52;7.70;;;;;;;;;;5077075;28;20593;-74
2021/06/23 10:19:11;;;;;;;9.10;8.30;;;;;;;;;;5058888;28;20653;-73
2021/06/23 10:21:37;;;;;;;8.98;7.93;;;;;;;;;;5060108;28;20236;-73
2021/06/23 10:24:04;;;;;;;9.10;6.93;;;;;;;;;;5069385;28;20184;-75
2021/06/23 10:26:30;;;;;;;12.23;9.30;;;;;;;;;;5059938;28;20195;-74
2021/06/23 10:28:57;;;;;;;9.02;7.65;;;;;;;;;;5062151;28;20177;-74
2021/06/23 10:31:25;;;;;;;9.07;8.10;;;;;;;;;;5061630;28;20250;-75
2021/06/23 10:33:51;;;;;;;8.80;7.97;;;;;;;;;;5059996;28;20192;-73
2021/06/23 10:36:19;;;;;;;10.60;8.80;;;;;;;;;;5058259;28;20181;-75
2021/06/23 10:38:45;;;;;;;10.68;8.80;;;;;;;;;;5060027;28;20181;-74
2021/06/23 10:41:11;;;;;;;10.38;8.55;;;;;;;;;;5060991;28;20177;-74
2021/06/23 10:43:38;;;;;;;10.27;8.75;;;;;;;;;;5061120;28;20201;-74
2021/06/23 10:46:04;;;;;;;9.75;8.50;;;;;;;;;;5059600;28;20185;-74
2021/06/23 10:48:50;;;;;;;8.30;7.50;;;;;;;;;;5059839;28;20180;-74
2021/06/23 10:51:24;;;;;;;8.35;7.55;;;;;;;;;;5049474;28;20201;-73
2021/06/23 10:53:50;;;;;;;9.68;8.73;;;;;;;;;;5059590;28;20208;-74
2021/06/23 10:56:36;;;;;;;9.50;8.60;;;;;;;;;;5059958;28;20855;-76
2021/06/23 10:59:22;;;;;;;9.55;8.40;;;;;;;;;;5059580;28;20453;-74
2021/06/23 11:02:08;;;;;;;9.60;8.70;;;;;;;;;;5062131;28;20622;-74
2021/06/23 11:04:53;;;;;;;10.23;8.20;;;;;;;;;;5078164;28;20183;-74
2021/06/23 11:07:35;;;;;;;12.43;9.98;;;;;;;;;;5058241;28;20661;-74
2021/06/23 11:10:14;;;;;;;10.60;8.52;;;;;;;;;;5058311;28;20185;-74
2021/06/23 11:12:54;;;;;;;8.80;7.90;;;;;;;;;;5059451;28;20268;-74
2021/06/23 11:15:21;;;;;;;10.95;9.48;;;;;;;;;;5059696;28;20239;-78
2021/06/23 11:17:49;;;;;;;12.57;9.85;;;;;;;;;;5060040;28;20216;-75
2021/06/23 11:20:21;;;;;;;12.25;9.80;;;;;;;;;;5060440;28;20240;-73
2021/06/23 11:22:48;;;;;;;10.32;9.23;;;;;;;;;;5077422;28;20654;-74
2021/06/23 11:25:24;;;;;;;11.25;10.05;;;;;;;;;;5057987;28;20258;-74
2021/06/23 11:28:08;;;;;;;14.02;10.15;;;;;;;;;;5059338;28;20192;-74
2021/06/23 11:30:53;;;;;;;11.38;10.27;;;;;;;;;;5058370;28;20177;-75
2021/06/23 11:33:28;;;;;;;11.23;10.23;;;;;;;;;;5065163;28;20193;-73
2021/06/23 11:35:57;;;;;;;12.25;9.85;;;;;;;;;;5060105;28;20192;-74
2021/06/23 11:38:24;;;;;;;16.55;11.70;;;;;;;;;;5062353;28;20252;-73
2021/06/23 11:40:50;;;;;;;11.73;10.48;;;;;;;;;;5066520;28;20169;-74
2021/06/23 11:43:16;;;;;;;16.80;11.63;;;;;;;;;;5061083;28;20681;-74
2021/06/23 11:45:42;;;;;;;14.77;11.45;;;;;;;;;;5061409;28;20315;-73
2021/06/23 11:48:09;;;;;;;11.65;10.10;;;;;;;;;;5061114;28;20181;-74
2021/06/23 11:50:35;;;;;;;13.18;11.80;;;;;;;;;;5065608;28;20185;-74
2021/06/23 11:53:06;;;;;;;13.18;11.75;;;;;;;;;;5064577;28;20181;-73
2021/06/23 11:55:32;;;;;;;14.20;11.80;;;;;;;;;;5080883;28;20200;-74
2021/06/23 11:57:58;;;;;;;17.63;12.20;;;;;;;;;;5060683;28;20209;-73
2021/06/23 12:00:25;;;;;;;12.60;11.45;;;;;;;;;;5061036;28;20798;-73
2021/06/23 12:02:51;;;;;;;14.43;12.65;;;;;;;;;;5062214;28;20185;-74
2021/06/23 12:05:17;;;;;;;13.88;12.27;;;;;;;;;;5063532;28;20194;-75
2021/06/23 12:07:43;;;;;;;16.73;11.88;;;;;;;;;;5065161;28;20188;-74
2021/06/23 12:10:09;;;;;;;16.17;12.03;;;;;;;;;;5061163;28;20185;-74
2021/06/23 12:12:36;;;;;;;13.43;11.55;;;;;;;;;;5061879;28;20440;-73
2021/06/23 12:15:03;;;;;;;13.40;11.80;;;;;;;;;;5062204;28;20579;-74
2021/06/23 12:17:29;;;;;;;12.70;11.35;;;;;;;;;;5061866;28;20197;-74
2021/06/23 12:19:55;;;;;;;15.07;13.00;;;;;;;;;;5066181;28;20188;-74
2021/06/23 12:22:23;;;;;;;18.23;12.32;;;;;;;;;;5061095;28;20181;-73
2021/06/23 12:24:49;;;;;;;14.10;11.75;;;;;;;;;;5061635;28;20232;-74
2021/06/23 12:27:15;;;;;;;12.52;11.15;;;;;;;;;;5061733;28;20192;-74
2021/06/23 12:29:41;;;;;;;13.35;11.98;;;;;;;;;;5063917;28;20269;-73
2021/06/23 12:32:07;;;;;;;14.50;12.00;;;;;;;;;;5062532;28;20252;-74
2021/06/23 12:34:33;;;;;;;14.00;10.77;;;;;;;;;;5063366;28;20647;-73
2021/06/23 12:37:00;;;;;;;13.05;11.75;;;;;;;;;;5061668;28;20292;-74
2021/06/23 12:39:26;;;;;;;15.80;12.05;;;;;;;;;;5061686;28;20181;-73
2021/06/23 12:41:52;;;;;;;15.50;11.33;;;;;;;;;;5061817;28;20203;-73
2021/06/23 12:44:18;;;;;;;13.15;11.85;;;;;;;;;;5062354;28;20431;-74
2021/06/23 12:46:45;;;;;;;13.75;11.50;;;;;;;;;;5064181;28;20249;-73
2021/06/23 12:49:12;;;;;;;13.52;12.13;;;;;;;;;;5061598;28;20177;-74
2021/06/23 12:51:38;;;;;;;13.75;12.35;;;;;;;;;;5062189;28;20270;-74
2021/06/23 12:54:04;;;;;;;13.07;10.90;;;;;;;;;;5074268;28;20178;-74
2021/06/23 12:56:30;;;;;;;19.20;11.73;;;;;;;;;;5059156;28;20551;-73
2021/06/23 12:58:56;;;;;;;14.47;13.07;;;;;;;;;;5063917;28;20173;-74
2021/06/23 13:01:22;;;;;;;13.40;12.00;;;;;;;;;;5061473;28;20840;-74
2021/06/23 13:03:48;;;;;;;13.15;11.43;;;;;;;;;;5059468;28;20510;-75
2021/06/23 13:06:14;;;;;;;13.48;11.48;;;;;;;;;;5061072;28;20207;-73
2021/06/23 13:08:40;;;;;;;12.38;11.18;;;;;;;;;;5063465;28;20585;-73
2021/06/23 13:11:06;;;;;;;16.25;13.23;;;;;;;;;;5063271;28;20177;-74
2021/06/23 13:13:32;;;;;;;12.95;11.30;;;;;;;;;;5062385;28;20172;-73
2021/06/23 13:16:00;;;;;;;15.60;12.98;;;;;;;;;;5060830;28;20217;-74
2021/06/23 13:18:27;;;;;;;12.93;11.40;;;;;;;;;;5060465;28;20212;-74
2021/06/23 13:20:53;;;;;;;14.95;13.35;;;;;;;;;;5061734;28;20173;-74
2021/06/23 13:23:19;;;;;;;14.98;13.50;;;;;;;;;;5062280;28;20191;-76
2021/06/23 13:25:46;;;;;;;14.38;12.70;;;;;;;;;;5078430;28;20245;-74
2021/06/23 13:28:12;;;;;;;14.95;13.35;;;;;;;;;;5060882;28;20189;-74
2021/06/23 13:30:39;;;;;;;13.10;11.80;;;;;;;;;;5076005;28;20667;-74
2021/06/23 13:33:05;;;;;;;15.95;13.10;;;;;;;;;;5062937;28;20186;-74
2021/06/23 13:35:31;;;;;;;14.80;12.82;;;;;;;;;;5058586;28;20244;-74
2021/06/23 13:37:57;;;;;;;13.48;11.68;;;;;;;;;;5062631;28;20201;-76
2021/06/23 13:40:24;;;;;;;17.50;13.38;;;;;;;;;;5063464;28;20169;-74
2021/06/23 13:42:51;;;;;;;16.13;13.40;;;;;;;;;;5075643;28;20216;-75
2021/06/23 13:45:17;;;;;;;15.35;13.85;;;;;;;;;;5062183;28;20181;-73
2021/06/23 13:47:43;;;;;;;16.60;14.07;;;;;;;;;;5075920;28;20196;-74
2021/06/23 13:50:16;;;;;;;16.90;13.13;;;;;;;;;;5061897;28;20754;-74
2021/06/23 13:52:45;;;;;;;15.65;13.68;;;;;;;;;;5062742;28;20200;-73
2021/06/23 13:55:14;;;;;;;14.70;12.90;;;;;;;;;;5060064;28;20189;-74
2021/06/23 13:57:41;;;;;;;17.45;13.20;;;;;;;;;;5060065;28;20687;-74
2021/06/23 14:00:08;;;;;;;13.77;12.38;;;;;;;;;;5058434;28;20187;-74
2021/06/23 14:02:34;;;;;;;16.15;14.45;;;;;;;;;;5060171;28;20186;-75
2021/06/23 14:05:00;;;;;;;14.50;12.45;;;;;;;;;;5062904;28;20172;-74
2021/06/23 14:07:26;;;;;;;14.53;13.13;;;;;;;;;;5077878;28;20279;-74
2021/06/23 14:09:52;;;;;;;12.80;11.50;;;;;;;;;;5075180;28;20468;-74
2021/06/23 14:12:18;;;;;;;15.65;13.18;;;;;;;;;;5058833;28;20468;-73
2021/06/23 14:14:44;;;;;;;13.67;12.00;;;;;;;;;;5059862;28;20192;-74
2021/06/23 14:17:11;;;;;;;15.05;12.45;;;;;;;;;;5062240;28;20452;-74
2021/06/23 14:19:38;;;;;;;13.45;11.55;;;;;;;;;;5060733;28;20201;-74
2021/06/23 14:22:04;;;;;;;15.07;13.48;;;;;;;;;;5060123;28;20181;-74
2021/06/23 14:24:32;;;;;;;13.30;11.90;;;;;;;;;;5058167;28;20177;-74
2021/06/23 14:26:58;;;;;;;14.25;12.65;;;;;;;;;;5059871;28;20501;-74
2021/06/23 14:29:24;;;;;;;14.98;13.30;;;;;;;;;;5059215;28;20201;-74
2021/06/23 14:31:50;;;;;;;15.65;14.05;;;;;;;;;;5078984;28;20176;-74
2021/06/23 14:34:16;;;;;;;13.60;11.80;;;;;;;;;;5059466;28;20188;-74
2021/06/23 14:36:42;;;;;;;14.13;12.83;;;;;;;;;;5058222;28;20212;-74
2021/06/23 14:39:08;;;;;;;14.50;13.10;;;;;;;;;;5058439;28;20783;-74
2021/06/23 14:41:34;;;;;;;12.68;11.57;;;;;;;;;;5063052;28;20242;-74
2021/06/23 14:44:00;;;;;;;13.10;11.80;;;;;;;;;;5061605;28;20562;-74